Shintoukou — JD4184 — position and weather

sailwx.info

Track history (hours):
 
Tides and Currents Weather Stations Pressure Air Temp Water Temp Dewpoint Dewpoint Depression Visibility Wind Speed Wind Dir Waves Ship Positions

Shintoukou

Last reported at 2018-Jul-22 04:13 UTC. Time now 2018-Jul-22 06:27 UTC.
Position N 34°23' E 134°17'.

Length 45 m; draft 3 m.

Type: Tanker. MMSI: 431009442.

Date/timePositionNaut miles runAvg speedWind from/ knotsBaromVisibWave heightAir tempDewpointWater temp
2018-Jul-22 04:13N 34°23' E 134°17'310.6
2018-Jul-22 03:58N 34°22' E 134°20'511.1
2018-Jul-22 03:30N 34°20' E 134°25'1310.8
2018-Jul-22 02:17N 34°14' E 134°39'8 9.7
2018-Jul-22 01:27N 34°11' E 134°49'511.0
2018-Jul-22 01:00N 34°11' E 134°54'510.7
2018-Jul-22 00:30N 34°12' E 135°01'510.2
2018-Jul-22 00:01N 34°13' E 135°07'2 2.9
2018-Jul-21 23:28N 34°13' E 135°09'0 0.0
2018-Jul-21 22:58N 34°13' E 135°09'0 0.0
2018-Jul-21 22:28N 34°13' E 135°09'0 0.0
2018-Jul-21 21:58N 34°13' E 135°09'0 0.0
2018-Jul-21 21:25N 34°13' E 135°09'0 0.0
2018-Jul-21 20:58N 34°13' E 135°09'1 2.0
2018-Jul-21 20:30N 34°13' E 135°08'1 0.1
2018-Jul-21 14:18N 34°12' E 135°07'0 0.0
2018-Jul-21 13:15N 34°12' E 135°07'0 0.0
2018-Jul-21 12:24N 34°12' E 135°07'0 0.1
2018-Jul-21 11:42N 34°12' E 135°07'0 0.0
2018-Jul-21 11:30N 34°12' E 135°07'0 0.0
2018-Jul-21 11:00N 34°12' E 135°07'0 0.1
2018-Jul-21 10:27N 34°12' E 135°07'0 0.0
2018-Jul-21 10:00N 34°12' E 135°07'0 0.1
2018-Jul-21 09:31N 34°12' E 135°07'5 9.1
2018-Jul-21 09:00N 34°11' E 135°02'5 9.5
2018-Jul-21 08:30N 34°12' E 134°56'5 9.5
2018-Jul-21 07:58N 34°11' E 134°50'29 0.7
2018-Jul-19 12:37N 34°37' E 134°36'3 9.7
2018-Jul-19 12:18N 34°37' E 134°39'5 9.8
2018-Jul-19 11:47N 34°37' E 134°45'6 9.5
2018-Jul-19 11:10N 34°37' E 134°53'3 9.4
2018-Jul-19 10:53N 34°38' E 134°56'3 9.3
2018-Jul-19 10:31N 34°38' E 135°00'4 8.3
2018-Jul-19 10:00N 34°37' E 135°05'5 9.7
2018-Jul-19 09:30N 34°37' E 135°11'5 9.5
2018-Jul-19 09:01N 34°38' E 135°17'5 9.8
2018-Jul-19 08:31N 34°40' E 135°22'3 1.0
2018-Jul-19 05:42N 34°40' E 135°25'0 0.5
2018-Jul-19 05:30N 34°40' E 135°25'5 9.2
2018-Jul-19 05:01N 34°39' E 135°20'510.0
2018-Jul-19 04:30N 34°38' E 135°14'5 9.7
2018-Jul-19 04:00N 34°37' E 135°08'6 8.4
2018-Jul-19 03:17N 34°38' E 135°01'3 8.8
2018-Jul-19 02:59N 34°38' E 134°58'7 0.3
2018-Jul-18 04:17N 34°41' E 134°50'710.3
2018-Jul-18 03:35N 34°38' E 134°58'111.8
2018-Jul-18 03:30N 34°38' E 134°59'611.8
2018-Jul-18 03:00N 34°37' E 135°06'611.1
2018-Jul-18 02:30N 34°37' E 135°13'510.6
2018-Jul-18 02:00N 34°38' E 135°19'510.0
2018-Jul-18 01:30N 34°39' E 135°25'2 0.8
2018-Jul-17 23:06N 34°38' E 135°27'0 0.4
2018-Jul-17 23:00N 34°38' E 135°27'1 2.1
2018-Jul-17 22:30N 34°39' E 135°26'4 1.9
2018-Jul-17 20:29N 34°39' E 135°22'0 0.0
2018-Jul-17 12:51N 34°39' E 135°22'1 2.6
2018-Jul-17 12:30N 34°39' E 135°21'510.1
2018-Jul-17 12:00N 34°37' E 135°15'510.1
2018-Jul-17 11:30N 34°36' E 135°09'1210.6
2018-Jul-17 10:20N 34°37' E 134°54'411.0
2018-Jul-17 10:00N 34°37' E 134°49'510.8
2018-Jul-17 09:30N 34°37' E 134°43'510.7
2018-Jul-17 09:00N 34°37' E 134°36'21 0.9
2018-Jul-16 09:45N 34°23' E 134°18'410.5
2018-Jul-16 09:25N 34°21' E 134°22'410.6
2018-Jul-16 09:01N 34°20' E 134°27'1110.5
2018-Jul-16 07:55N 34°14' E 134°39'9 1.6
2018-Jul-16 02:42N 34°11' E 134°49'210.5
2018-Jul-16 02:30N 34°11' E 134°51'510.2
2018-Jul-16 02:00N 34°12' E 134°57'510.8
2018-Jul-16 01:30N 34°13' E 135°04'4 7.1
2018-Jul-16 00:57N 34°13' E 135°09'0 0.0
2018-Jul-16 00:30N 34°13' E 135°09'0 0.0
2018-Jul-15 23:57N 34°13' E 135°09'0 0.0
2018-Jul-15 23:30N 34°13' E 135°09'0 0.0
2018-Jul-15 22:57N 34°13' E 135°09'0 0.0
2018-Jul-15 22:30N 34°13' E 135°09'0 0.0
2018-Jul-15 22:00N 34°13' E 135°09'2 3.1
2018-Jul-15 21:30N 34°13' E 135°07'0 0.0
2018-Jul-15 13:03N 34°13' E 135°07'0 0.0
2018-Jul-15 12:57N 34°13' E 135°07'0 0.0
2018-Jul-15 09:04N 34°13' E 135°07'0 0.0
2018-Jul-15 09:00N 34°13' E 135°07'4 7.3
2018-Jul-15 08:31N 34°12' E 135°03'5 9.4
2018-Jul-15 08:00N 34°12' E 134°57'29 1.2
2018-Jul-14 07:45N 34°37' E 134°40'5 9.6
2018-Jul-14 07:16N 34°37' E 134°45'3 9.3
2018-Jul-14 06:56N 34°37' E 134°49'4 7.8
2018-Jul-14 06:28N 34°37' E 134°53'5 9.4
2018-Jul-14 05:59N 34°38' E 134°59'3 6.8
2018-Jul-14 05:30N 34°37' E 135°03'510.6
2018-Jul-14 05:01N 34°36' E 135°09'510.0
2018-Jul-14 04:30N 34°35' E 135°15'5 9.8
2018-Jul-14 04:00N 34°33' E 135°20'4 0.7
2018-Jul-13 23:15N 34°32' E 135°24'2 0.2
2018-Jul-13 13:39N 34°33' E 135°23'0 2.6
2018-Jul-13 13:31N 34°33' E 135°22'5 9.2
2018-Jul-13 13:00N 34°33' E 135°17'5 9.5
2018-Jul-13 12:31N 34°35' E 135°11'510.2
2018-Jul-13 12:00N 34°36' E 135°05'9 6.5
2018-Jul-13 10:38N 34°37' E 134°54'1 6.1
2018-Jul-13 10:30N 34°37' E 134°53'3 6.4
2018-Jul-13 10:00N 34°37' E 134°50'7 8.7
2018-Jul-13 09:09N 34°37' E 134°41'2 9.5
2018-Jul-13 08:54N 34°37' E 134°38'4 9.7
2018-Jul-13 08:27N 34°37' E 134°32'  
Track history (hours):
 
Tides and Currents Weather Stations Pressure Air Temp Water Temp Dewpoint Dewpoint Depression Visibility Wind Speed Wind Dir Waves Ship Positions

Shintoukou

Last reported at 2018-Jul-22 04:13 UTC. Time now 2018-Jul-22 06:27 UTC.
Position N 34°23' E 134°17'.

Length 45 m; draft 3 m.

Type: Tanker. MMSI: 431009442.

Date/timePositionNaut miles runAvg speedWind from/ knotsBaromVisibWave heightAir tempDewpointWater temp
2018-Jul-22 04:13N 34°23' E 134°17'310.6
2018-Jul-22 03:58N 34°22' E 134°20'511.1
2018-Jul-22 03:30N 34°20' E 134°25'1310.8
2018-Jul-22 02:17N 34°14' E 134°39'8 9.7
2018-Jul-22 01:27N 34°11' E 134°49'511.0
2018-Jul-22 01:00N 34°11' E 134°54'510.7
2018-Jul-22 00:30N 34°12' E 135°01'510.2
2018-Jul-22 00:01N 34°13' E 135°07'2 2.9
2018-Jul-21 23:28N 34°13' E 135°09'0 0.0
2018-Jul-21 22:58N 34°13' E 135°09'0 0.0
2018-Jul-21 22:28N 34°13' E 135°09'0 0.0
2018-Jul-21 21:58N 34°13' E 135°09'0 0.0
2018-Jul-21 21:25N 34°13' E 135°09'0 0.0
2018-Jul-21 20:58N 34°13' E 135°09'1 2.0
2018-Jul-21 20:30N 34°13' E 135°08'1 0.1
2018-Jul-21 14:18N 34°12' E 135°07'0 0.0
2018-Jul-21 13:15N 34°12' E 135°07'0 0.0
2018-Jul-21 12:24N 34°12' E 135°07'0 0.1
2018-Jul-21 11:42N 34°12' E 135°07'0 0.0
2018-Jul-21 11:30N 34°12' E 135°07'0 0.0
2018-Jul-21 11:00N 34°12' E 135°07'0 0.1
2018-Jul-21 10:27N 34°12' E 135°07'0 0.0
2018-Jul-21 10:00N 34°12' E 135°07'0 0.1
2018-Jul-21 09:31N 34°12' E 135°07'5 9.1
2018-Jul-21 09:00N 34°11' E 135°02'5 9.5
2018-Jul-21 08:30N 34°12' E 134°56'5 9.5
2018-Jul-21 07:58N 34°11' E 134°50'29 0.7
2018-Jul-19 12:37N 34°37' E 134°36'3 9.7
2018-Jul-19 12:18N 34°37' E 134°39'5 9.8
2018-Jul-19 11:47N 34°37' E 134°45'6 9.5
2018-Jul-19 11:10N 34°37' E 134°53'3 9.4
2018-Jul-19 10:53N 34°38' E 134°56'3 9.3
2018-Jul-19 10:31N 34°38' E 135°00'4 8.3
2018-Jul-19 10:00N 34°37' E 135°05'5 9.7
2018-Jul-19 09:30N 34°37' E 135°11'5 9.5
2018-Jul-19 09:01N 34°38' E 135°17'5 9.8
2018-Jul-19 08:31N 34°40' E 135°22'3 1.0
2018-Jul-19 05:42N 34°40' E 135°25'0 0.5
2018-Jul-19 05:30N 34°40' E 135°25'5 9.2
2018-Jul-19 05:01N 34°39' E 135°20'510.0
2018-Jul-19 04:30N 34°38' E 135°14'5 9.7
2018-Jul-19 04:00N 34°37' E 135°08'6 8.4
2018-Jul-19 03:17N 34°38' E 135°01'3 8.8
2018-Jul-19 02:59N 34°38' E 134°58'7 0.3
2018-Jul-18 04:17N 34°41' E 134°50'710.3
2018-Jul-18 03:35N 34°38' E 134°58'111.8
2018-Jul-18 03:30N 34°38' E 134°59'611.8
2018-Jul-18 03:00N 34°37' E 135°06'611.1
2018-Jul-18 02:30N 34°37' E 135°13'510.6
2018-Jul-18 02:00N 34°38' E 135°19'510.0
2018-Jul-18 01:30N 34°39' E 135°25'2 0.8
2018-Jul-17 23:06N 34°38' E 135°27'0 0.4
2018-Jul-17 23:00N 34°38' E 135°27'1 2.1
2018-Jul-17 22:30N 34°39' E 135°26'4 1.9
2018-Jul-17 20:29N 34°39' E 135°22'0 0.0
2018-Jul-17 12:51N 34°39' E 135°22'1 2.6
2018-Jul-17 12:30N 34°39' E 135°21'510.1
2018-Jul-17 12:00N 34°37' E 135°15'510.1
2018-Jul-17 11:30N 34°36' E 135°09'1210.6
2018-Jul-17 10:20N 34°37' E 134°54'411.0
2018-Jul-17 10:00N 34°37' E 134°49'510.8
2018-Jul-17 09:30N 34°37' E 134°43'510.7
2018-Jul-17 09:00N 34°37' E 134°36'21 0.9
2018-Jul-16 09:45N 34°23' E 134°18'410.5
2018-Jul-16 09:25N 34°21' E 134°22'410.6
2018-Jul-16 09:01N 34°20' E 134°27'1110.5
2018-Jul-16 07:55N 34°14' E 134°39'9 1.6
2018-Jul-16 02:42N 34°11' E 134°49'210.5
2018-Jul-16 02:30N 34°11' E 134°51'510.2
2018-Jul-16 02:00N 34°12' E 134°57'510.8
2018-Jul-16 01:30N 34°13' E 135°04'4 7.1
2018-Jul-16 00:57N 34°13' E 135°09'0 0.0
2018-Jul-16 00:30N 34°13' E 135°09'0 0.0
2018-Jul-15 23:57N 34°13' E 135°09'0 0.0
2018-Jul-15 23:30N 34°13' E 135°09'0 0.0
2018-Jul-15 22:57N 34°13' E 135°09'0 0.0
2018-Jul-15 22:30N 34°13' E 135°09'0 0.0
2018-Jul-15 22:00N 34°13' E 135°09'2 3.1
2018-Jul-15 21:30N 34°13' E 135°07'0 0.0
2018-Jul-15 13:03N 34°13' E 135°07'0 0.0
2018-Jul-15 12:57N 34°13' E 135°07'0 0.0
2018-Jul-15 09:04N 34°13' E 135°07'0 0.0
2018-Jul-15 09:00N 34°13' E 135°07'4 7.3
2018-Jul-15 08:31N 34°12' E 135°03'5 9.4
2018-Jul-15 08:00N 34°12' E 134°57'29 1.2
2018-Jul-14 07:45N 34°37' E 134°40'5 9.6
2018-Jul-14 07:16N 34°37' E 134°45'3 9.3
2018-Jul-14 06:56N 34°37' E 134°49'4 7.8
2018-Jul-14 06:28N 34°37' E 134°53'5 9.4
2018-Jul-14 05:59N 34°38' E 134°59'3 6.8
2018-Jul-14 05:30N 34°37' E 135°03'510.6
2018-Jul-14 05:01N 34°36' E 135°09'510.0
2018-Jul-14 04:30N 34°35' E 135°15'5 9.8
2018-Jul-14 04:00N 34°33' E 135°20'4 0.7
2018-Jul-13 23:15N 34°32' E 135°24'2 0.2
2018-Jul-13 13:39N 34°33' E 135°23'0 2.6
2018-Jul-13 13:31N 34°33' E 135°22'5 9.2
2018-Jul-13 13:00N 34°33' E 135°17'5 9.5
2018-Jul-13 12:31N 34°35' E 135°11'510.2
2018-Jul-13 12:00N 34°36' E 135°05'9 6.5
2018-Jul-13 10:38N 34°37' E 134°54'1 6.1
2018-Jul-13 10:30N 34°37' E 134°53'3 6.4
2018-Jul-13 10:00N 34°37' E 134°50'7 8.7
2018-Jul-13 09:09N 34°37' E 134°41'2 9.5
2018-Jul-13 08:54N 34°37' E 134°38'4 9.7
2018-Jul-13 08:27N 34°37' E 134°32'  

Dump ship's entire track history